Tiempo atmosférico en la estación meteorológica de Lekeitio, Bizkaia (12 m.)



Fecha
DESCASC
Temp. máxima en grados centígrados (hora)
DESCASC
Temp. mínima en grados centígrados (hora)
DESCASC
Temp. media en grados centígrados
DESCASC
Racha de viento máxima en m/sg (hora)
DESCASC
Velocidad máxima media en intervalos de 10 minutos(hora)
DESCASC
Precipitaciones diarias en mm
DESCASC
Precipitaciones de 00:00 a 06:00 en mm
DESCASC
Precipitaciones de 06:00 a 12:00 en mm
DESCASC
Precipitaciones de 12:00 a 18:00 en mm
DESCASC
Precipitaciones de 18:00 a 24:00 en mm
DESCASC
18-08-2019 21.4 (10:20) 4.9 (18:30) 13.1 19.72 (13:10) 12.78 (17:00) -- -- -- -- --
17-08-2019 26.3 (19:10) 15.3 (06:40) 20.8 5.83 (12:10) 3.61 (09:40) -- -- -- -- --
16-08-2019 24.5 (17:50) 13.6 (07:20) 19.1 6.67 (09:50) 5 (19:30) -- -- -- -- --
15-08-2019 -- (--) -- (--) -- 19.72 (05:50) 11.39 (05:30) -- -- -- -- --
14-08-2019 21.7 (16:30) 13 (00:00) 17.4 10 (17:50) 7.5 (17:50) -- -- -- -- --
13-08-2019 22.4 (19:30) 15.6 (00:00) 19 7.22 (03:00) 4.17 (10:50) -- -- -- -- --
12-08-2019 19 (18:20) 14.1 (00:00) 16.6 18.61 (16:40) 14.17 (15:50) -- -- -- -- --
11-08-2019 -- (--) -- (--) -- -- (--) -- (--) -- -- -- -- --
10-08-2019 24.3 (16:40) 17.2 (00:00) 20.8 10.83 (11:10) 7.22 (10:50) -- -- -- -- --
09-08-2019 29.5 (00:20) 19.7 (00:00) 24.6 13.89 (09:30) 9.44 (09:20) -- -- -- -- --
08-08-2019 32 (14:20) 16.3 (00:00) 24.1 9.72 (10:10) 5.83 (20:20) -- -- -- -- --
07-08-2019 25.3 (17:30) 15.4 (00:00) 20.3 9.44 (02:40) 3.61 (23:50) -- -- -- -- --
06-08-2019 22.3 (14:40) 15 (00:00) 18.6 7.22 (22:10) 5 (20:20) -- -- -- -- --
05-08-2019 23.3 (19:20) 12 (00:00) 17.6 4.44 (00:10) 2.5 (00:10) -- -- -- -- --
04-08-2019 19.1 (11:00) 14.6 (00:00) 16.9 6.94 (12:00) 5.28 (12:50) -- -- -- -- --
03-08-2019 23.5 (14:50) 15.6 (00:00) 19.6 12.5 (21:40) 9.44 (21:40) -- -- -- -- --
02-08-2019 23.2 (19:40) 14.9 (00:00) 19.1 5.28 (00:30) 2.78 (00:30) -- -- -- -- --
01-08-2019 19.4 (12:10) 15.6 (00:00) 17.5 20 (16:10) 10.56 (15:40) -- -- -- -- --
31-07-2019 22 (14:00) 11.9 (00:00) 16.9 6.11 (23:10) 3.33 (07:40) -- -- -- -- --
30-07-2019 19.6 (16:00) 15.6 (00:00) 17.6 20 (15:30) 13.33 (14:50) -- -- -- -- --
29-07-2019 21.8 (10:30) 12.9 (00:00) 17.3 20 (15:10) 12.78 (14:10) -- -- -- -- --
28-07-2019 23.5 (17:50) 15.7 (00:00) 19.6 10.28 (04:20) 6.11 (10:10) -- -- -- -- --
27-07-2019 18.2 (12:20) 14.2 (00:00) 16.2 23.06 (18:30) 13.89 (18:30) -- -- -- -- --
26-07-2019 20.5 (00:10) 15.1 (00:00) 17.8 19.44 (13:50) 12.78 (11:20) -- -- -- -- --
25-07-2019 25.1 (11:20) 19.4 (00:00) 22.3 14.72 (22:30) 11.11 (22:30) -- -- -- -- --
24-07-2019 27.6 (17:10) 19.7 (00:00) 23.7 12.5 (20:00) 7.5 (20:00) -- -- -- -- --
23-07-2019 35.2 (13:30) 19.9 (00:00) 27.6 19.72 (18:10) 12.78 (18:20) -- -- -- -- --
22-07-2019 27.7 (16:10) 20.2 (00:00) 24 9.72 (23:50) 6.39 (23:50) -- -- -- -- --
21-07-2019 25.6 (17:00) 18.8 (00:00) 22.2 8.33 (12:10) 5 (19:30) -- -- -- -- --

Gráficas

Temp. máximas Temp. mínimas Temp. medias Precipitaciones Rachas de viento máximas Velocidades máximas media en intervalos de 10 minutos

Datos horarios

Fecha y hora oficial Temperatura (ºC) Velocidad del viento (km/h) Dirección del viento Racha (km/h) Dirección de racha Precipitación (mm) Presión (hPa) Tendencia (hPa) Humedad (%)
2019-08-19 23:00:00 17 15 Sur 36 Sudeste -- 1015 1 90
2019-08-19 22:00:00 19.2 12 Norte 24 Nordeste -- 1014.8 1 71
2019-08-19 21:00:00 19.4 13 Nordeste 25 Nordeste -- 1014.4 0.3 69
2019-08-19 20:00:00 19.1 12 Nordeste 21 Nordeste -- 1014 0.2 72
2019-08-19 19:00:00 18.9 12 Norte 19 Norte -- 1013.8 -0.5 80
2019-08-19 18:00:00 19.2 11 Noroeste 19 Noroeste -- 1014.1 -0.6 79
2019-08-19 17:00:00 18.6 13 Noroeste 21 Noroeste -- 1013.8 -0.5 79
2019-08-19 16:00:00 18.6 15 Noroeste 21 Noroeste -- 1014.3 0.1 80
2019-08-19 15:00:00 19.3 6 Noroeste 12 Noroeste -- 1014.7 0.4 75
2019-08-19 14:00:00 19.2 5 Sur 14 Sur -- 1014.3 0.6 79
2019-08-19 13:00:00 18.1 11 Sur 24 Sudeste -- 1014.2 1 88
2019-08-19 12:00:00 16.8 17 Sudeste 23 Sudeste -- 1014.3 0.9 92
2019-08-19 11:00:00 17.7 12 Oeste 19 Noroeste -- 1013.7 0.5 85
2019-08-19 10:00:00 17.2 5 Oeste 19 Noroeste -- 1013.2 0 82
2019-08-19 09:00:00 16 6 Sudoeste 22 Noroeste -- 1013.4 0.3 91
2019-08-19 08:00:00 16.4 12 Noroeste 21 Oeste -- 1013.2 0.5 88
2019-08-19 07:00:00 16.2 11 Oeste 30 Noroeste -- 1013.2 0.3 94
2019-08-19 06:00:00 17.8 12 Noroeste 22 Noroeste -- 1013.1 0.1 85
2019-08-19 05:00:00 17.9 6 Sur 13 Oeste -- 1012.7 -0.5 84
2019-08-19 04:00:00 18.7 8 Noroeste 16 Noroeste -- 1012.9 -0.2 76
2019-08-19 03:00:00 18.1 8 Oeste 21 Oeste -- 1013 0.1 75
2019-08-19 02:00:00 16.5 11 Oeste 27 Sudoeste -- 1013.2 0.5 81
2019-08-19 01:00:00 16.3 16 Oeste 30 Oeste -- 1013.1 0.9 83
2019-08-19 00:00:00 12 4 Oeste 29 Noroeste -- 1012.9 2.2 89
2019-08-18 23:00:00 13.7 6 Oeste 19 Noroeste -- 1012.7 2.6 88
2019-08-18 22:00:00 11.6 14 Noroeste 45 Noroeste -- 1012.2 2.4 94
2019-08-18 21:00:00 15.8 35 Noroeste 46 Noroeste -- 1010.7 1.3 90
2019-08-18 20:00:00 10.1 39 Noroeste 64 Noroeste -- 1010.1 1.7 91
2019-08-18 19:00:00 10.1 35 Noroeste 50 Noroeste -- 1009.8 1.6 93
2019-08-18 18:00:00 9.2 42 Noroeste 69 Noroeste -- 1009.4 1.9 96
2019-08-18 17:00:00 5 46 Noroeste 59 Noroeste -- 1008.4 0.9 96
2019-08-18 16:00:00 19 31 Noroeste 71 Noroeste -- 1008.2 0.5 91
2019-08-18 15:00:00 18.9 31 Noroeste 40 Noroeste -- 1007.5 0.4 90
2019-08-18 14:00:00 18.5 28 Noroeste 71 Noroeste -- 1007.5 1.2 87
2019-08-18 13:00:00 18.2 36 Noroeste 46 Noroeste -- 1007.7 2.1 91
2019-08-18 12:00:00 18.7 28 Noroeste 34 Noroeste -- 1007.1 2.1 93
2019-08-18 11:00:00 19 23 Noroeste 31 Noroeste -- 1006.3 2.3 92
2019-08-18 10:00:00 21.2 18 Noroeste 24 Noroeste -- 1005.6 3 87
2019-08-18 09:00:00 20.2 15 Oeste 25 Noroeste -- 1005 2.9 78
2019-08-18 08:00:00 19.7 11 Noroeste 19 Noroeste -- 1004 1.8 80
2019-08-18 07:00:00 16.8 3 Sudoeste 15 Sur -- 1002.6 -0.4 90
2019-08-18 06:00:00 18 10 Sur 28 Sur -- 1002.1 -1.8 86
2019-08-18 05:00:00 18.5 18 Sur 31 Sur -- 1002.2 -2.4 87
2019-08-18 04:00:00 16.4 22 Sur 30 Sur -- 1003 -1.8 92
2019-08-18 03:00:00 17.9 11 Sur 14 Sur -- 1003.9 -1.5 91
2019-08-18 02:00:00 19.3 5 Sur 13 Sur -- 1004.6 -1.4 87
2019-08-18 01:00:00 18.9 10 Sur 15 Sur -- 1004.8 -1.5 87
2019-08-18 00:00:00 19.6 10 Sur 14 Sur -- 1005.4 -0.7 82
2019-08-17 23:00:00 19.9 8 Sur 12 Sur -- 1006 -0.1 80
2019-08-17 22:00:00 20.3 2 Oeste 12 Oeste -- 1006.3 -0.2 75
2019-08-17 21:00:00 20.4 9 Noroeste 13 Oeste -- 1006.1 -0.8 85
2019-08-17 20:00:00 22.5 2 Sudoeste 9 Oeste -- 1006.1 -1.4 80
2019-08-17 19:00:00 26 0 Calma 10 Sudeste -- 1006.5 -1.4 65
2019-08-17 18:00:00 25.5 5 Sudeste 8 Este -- 1006.9 -1.4 71
2019-08-17 17:00:00 24.8 4 Este 9 Sudeste -- 1007.5 -0.6 72
2019-08-17 16:00:00 23.5 0 Calma 7 Nordeste -- 1007.9 -0.6 76
2019-08-17 15:00:00 23.3 4 Este 13 Este -- 1008.3 -0.5 75
2019-08-17 14:00:00 24.8 10 Sudeste 18 Sudeste -- 1008.1 -1.1 67
2019-08-17 13:00:00 24 8 Sudeste 21 Sudeste -- 1008.5 -0.7 70
2019-08-17 12:00:00 23.2 9 Sudeste 18 Sudeste -- 1008.8 -0.2 67
2019-08-17 11:00:00 22.5 12 Sudeste 19 Sudeste -- 1009.2 0.6 70
2019-08-17 10:00:00 20.4 8 Sudeste 17 Sudeste -- 1009.2 0.5 72
2019-08-17 09:00:00 18 2 Sur 14 Sur -- 1009 0.1 84
2019-08-17 08:00:00 17 11 Sur 14 Sur -- 1008.6 -0.7 87
2019-08-17 07:00:00 15.8 9 Sur 14 Sur -- 1008.7 -1.3 85
2019-08-17 06:00:00 15.7 9 Sur 13 Sur -- 1008.9 -1.2 86
2019-08-17 05:00:00 16.1 9 Sur 12 Sur -- 1009.3 -1 84
2019-08-17 04:00:00 16 0 Calma 9 Noroeste -- 1010 -0.7 82
2019-08-17 03:00:00 16.3 8 Sur 14 Sur -- 1010.1 -0.5 77
2019-08-17 02:00:00 16.8 6 Sur 9 Sur -- 1010.3 -0.4 73
2019-08-17 01:00:00 17.6 3 Sur 13 Sur -- 1010.7 0.1 67
2019-08-17 00:00:00 19.1 6 Oeste 13 Sur -- 1010.6 0.6 63
2019-08-16 23:00:00 18.9 3 Sudoeste 11 Sudoeste -- 1010.7 1.2 63
2019-08-16 22:00:00 20 6 Oeste 12 Oeste -- 1010.6 1 63
2019-08-16 21:00:00 20 10 Noroeste 18 Noroeste -- 1010 0.5 74
2019-08-16 20:00:00 20.4 15 Noroeste 22 Noroeste -- 1009.5 -0.4 78
2019-08-16 19:00:00 21.4 11 Noroeste 14 Noroeste -- 1009.6 -0.6 75
2019-08-16 18:00:00 23.8 4 Este 8 Este -- 1009.5 -1.1 66
2019-08-16 17:00:00 23.1 4 Este 10 Este -- 1009.9 -1.1 69
2019-08-16 16:00:00 23.5 3 Este 9 Este -- 1010.2 -0.8 66
2019-08-16 15:00:00 21.7 5 Este 9 Este -- 1010.6 -0.7 72
2019-08-16 14:00:00 20.8 5 Este 13 Este -- 1011 -0.3 71
2019-08-16 13:00:00 21.3 6 Sudeste 13 Este -- 1011 -1 71
2019-08-16 12:00:00 20.2 3 Sudeste 21 Este -- 1011.3 -1.2 72
2019-08-16 11:00:00 20.1 8 Sudeste 20 Sudeste -- 1011.3 -1.2 71
2019-08-16 10:00:00 18.7 16 Sudeste 24 Sudeste -- 1012 -0.5 75
2019-08-16 09:00:00 17.4 13 Sur 17 Sur -- 1012.5 -0.2 79
2019-08-16 08:00:00 14.9 12 Sur 17 Sur -- 1012.5 -0.7 89
2019-08-16 07:00:00 14.2 12 Sur 18 Sur -- 1012.5 -0.8 90
2019-08-16 06:00:00 14.4 12 Sur 15 Sur -- 1012.7 -1.6 91
2019-08-16 05:00:00 14.6 12 Sur 19 Sur -- 1013.2 -1.7 88
2019-08-16 04:00:00 15 13 Sur 18 Sur -- 1013.3 -1.9 89
2019-08-16 03:00:00 14.8 12 Sur 15 Sur -- 1014.3 -1.6 91
2019-08-16 02:00:00 15.2 9 Sur 13 Sur -- 1014.9 -1.4 90
2019-08-16 01:00:00 15.8 9 Sur 14 Sur -- 1015.2 -0.8 89
2019-08-16 00:00:00 15.8 6 Sur 10 Sur -- 1015.9 0.3 89
2019-08-15 23:00:00 16.1 2 Sur 8 Sur -- 1016.3 0.4 87
2019-08-15 22:00:00 17.5 3 Sudeste 7 Sudeste -- 1016 -0.2 80
2019-08-15 21:00:00 20.3 0 Calma 6 Sudeste -- 1015.6 -0.8 69
2019-08-15 20:00:00 21.7 2 Norte 9 Nordeste -- 1015.9 -0.6 67
2019-08-15 19:00:00 21.1 5 Norte 12 Norte -- 1016.2 -0.5 68
2019-08-15 18:00:00 20.6 10 Norte 21 Noroeste -- 1016.4 -0.3 70
2019-08-15 17:00:00 20.3 16 Noroeste 21 Noroeste -- 1016.5 -0.1 67
2019-08-15 16:00:00 19.9 14 Noroeste 22 Noroeste -- 1016.7 0 69
2019-08-15 15:00:00 19.8 19 Noroeste 27 Noroeste -- 1016.7 0.2 71
2019-08-15 14:00:00 19.3 19 Noroeste 29 Noroeste -- 1016.6 0 72
2019-08-15 13:00:00 18.7 18 Noroeste 28 Noroeste -- 1016.7 0.3 77
2019-08-15 12:00:00 18.4 23 Noroeste 32 Noroeste -- 1016.5 0.4 82
2019-08-15 11:00:00 17.4 12 Oeste 22 Oeste -- 1016.6 0.9 86
2019-08-15 10:00:00 17.6 10 Oeste 31 Oeste -- 1016.4 1.2 84
2019-08-15 09:00:00 16.2 15 Oeste 30 Oeste -- 1016.1 1.6 85
2019-08-15 08:00:00 12.3 13 Oeste 24 Sudoeste -- 1015.7 2.2 91
2019-08-15 07:00:00 11.9 15 Oeste 32 Oeste -- 1015.2 1.3 91
2019-08-15 06:00:00 7.5 20 Noroeste 71 Noroeste -- 1014.5 0.5 94
2019-08-15 05:00:00 5.2 28 Noroeste 46 Noroeste -- 1013.5 -0.9 95
2019-08-15 04:00:00 12.7 7 Oeste 23 Noroeste -- 1013.9 -0.3 92
2019-08-15 03:00:00 12 9 Oeste 19 Noroeste -- 1014 -0.4 93
2019-08-15 02:00:00 13.4 5 Oeste 21 Noroeste -- 1014.4 -0.1 95
2019-08-15 01:00:00 18.6 12 Noroeste 22 Noroeste -- 1014.2 0.1 92
2019-08-15 00:00:00 19.1 0 Calma 12 Noroeste -- 1014.4 0.8 89
2019-08-14 23:00:00 18.5 9 Noroeste 27 Noroeste -- 1014.5 1.3 91
2019-08-14 22:00:00 18.8 10 Oeste 22 Noroeste -- 1014.1 1.1 85
2019-08-14 21:00:00 18 18 Noroeste 26 Noroeste -- 1013.6 0.4 90
2019-08-14 20:00:00 19.2 19 Noroeste 31 Noroeste -- 1013.2 -0.1 88
2019-08-14 19:00:00 19.2 24 Noroeste 33 Noroeste -- 1013 -0.4 81
2019-08-14 18:00:00 19.6 26 Noroeste 36 Oeste -- 1013.2 -0.2 86
2019-08-14 17:00:00 20.5 25 Noroeste 31 Noroeste -- 1013.3 -0.3 80
2019-08-14 16:00:00 20.3 23 Noroeste 31 Noroeste -- 1013.4 -0.2 75
2019-08-14 15:00:00 20.4 15 Noroeste 26 Noroeste -- 1013.4 0 68
2019-08-14 14:00:00 20.4 9 Noroeste 14 Noroeste -- 1013.6 0.3 63
2019-08-14 13:00:00 20.3 8 Noroeste 12 Noroeste -- 1013.6 0.4 63
2019-08-14 12:00:00 19.7 2 Nordeste 9 Sudeste -- 1013.4 0.4 62
2019-08-14 11:00:00 20.2 4 Este 9 Sudeste -- 1013.3 0.5 66
2019-08-14 10:00:00 18.3 0 Calma 16 Sur -- 1013.2 0.5 73
2019-08-14 09:00:00 17 9 Sur 17 Sur -- 1013 0 75
2019-08-14 08:00:00 13.9 13 Sur 21 Sur -- 1012.8 -0.4 83
2019-08-14 07:00:00 13.8 14 Sur 25 Sur -- 1012.7 -0.6 83
2019-08-14 06:00:00 14.9 13 Sur 21 Sur -- 1013 -1.3 79
2019-08-14 05:00:00 14.9 14 Sur 21 Sur -- 1013.2 -1.8 80
2019-08-14 04:00:00 14.3 17 Sur 21 Sur -- 1013.3 -1.9 85
2019-08-14 03:00:00 14.1 15 Sur 19 Sur -- 1014.3 -1.3 88
2019-08-14 02:00:00 15 11 Sur 15 Sur -- 1015 -0.8 86
2019-08-14 01:00:00 15.4 10 Sur 15 Sur -- 1015.2 -0.3 84
2019-08-14 00:00:00 16.1 9 Sur 15 Sur -- 1015.6 0.2 82
2019-08-13 23:00:00 16.5 9 Sur 13 Sur -- 1015.8 0.5 78
2019-08-13 22:00:00 17.4 8 Sur 12 Sur -- 1015.5 -0.1 74
2019-08-13 21:00:00 19.9 4 Sudeste 11 Sudeste -- 1015.4 -0.4 63
2019-08-13 20:00:00 21.4 0 Calma 10 Nordeste -- 1015.3 -0.8 61
2019-08-13 19:00:00 21.2 3 Este 14 Este -- 1015.6 -0.5 63
2019-08-13 18:00:00 21.4 3 Este 15 Este -- 1015.8 -0.5 65
2019-08-13 17:00:00 20.1 12 Norte 18 Norte -- 1016.1 -0.4 65
2019-08-13 16:00:00 19.4 8 Norte 18 Norte -- 1016.1 -0.8 63
2019-08-13 15:00:00 19.2 10 Noroeste 19 Noroeste -- 1016.3 -0.6 69
2019-08-13 14:00:00 18.6 11 Noroeste 17 Noroeste -- 1016.5 -0.3 71
2019-08-13 13:00:00 18.2 10 Noroeste 20 Noroeste -- 1016.9 0.2 72
2019-08-13 12:00:00 18.3 14 Noroeste 21 Noroeste -- 1016.9 0.3 75
2019-08-13 11:00:00 17.5 13 Noroeste 21 Noroeste -- 1016.8 0.3 76
2019-08-13 10:00:00 17 8 Noroeste 17 Noroeste -- 1016.7 0.7 78
2019-08-13 09:00:00 16.5 7 Oeste 16 Oeste -- 1016.6 0.4 79
2019-08-13 08:00:00 16.8 10 Noroeste 18 Oeste -- 1016.5 0.3 76
2019-08-13 07:00:00 16.2 9 Oeste 17 Oeste -- 1016 -0.6 77
2019-08-13 06:00:00 16.7 9 Oeste 15 Oeste -- 1016.2 -0.9 76
2019-08-13 05:00:00 16.6 8 Oeste 13 Oeste -- 1016.2 -1.6 76
2019-08-13 04:00:00 16.5 6 Oeste 23 Oeste -- 1016.6 -1.3 76
2019-08-13 03:00:00 17.2 15 Noroeste 26 Noroeste -- 1017.1 -1 74
2019-08-13 02:00:00 17.4 9 Oeste 18 Oeste -- 1017.8 -0.4 68
2019-08-13 01:00:00 17.5 10 Oeste 17 Oeste -- 1017.9 0.4 68
2019-08-13 00:00:00 17.3 6 Oeste 17 Oeste -- 1018.1 1.2 71
2019-08-12 23:00:00 17 7 Oeste 27 Noroeste -- 1018.2 1.6 71
2019-08-12 22:00:00 18 21 Noroeste 36 Oeste -- 1017.5 1.3 68
2019-08-12 21:00:00 18.2 27 Noroeste 42 Noroeste -- 1016.9 0.7 67
2019-08-12 20:00:00 18.6 33 Noroeste 72 Noroeste -- 1016.6 0.7 68
2019-08-12 19:00:00 18.8 35 Noroeste 71 Noroeste -- 1016.2 0.2 67
2019-08-12 18:00:00 18.3 26 Noroeste 55 Noroeste -- 1016.2 0.1 73
2019-08-12 17:00:00 17.5 31 Noroeste 67 Noroeste -- 1015.9 -0.4 80
2019-08-12 16:00:00 18.3 46 Noroeste 62 Noroeste -- 1016 0 78
2019-08-12 15:00:00 18.2 44 Noroeste 55 Noroeste -- 1016.1 0.1 74
2019-08-12 14:00:00 18.2 38 Noroeste 61 Noroeste -- 1016.3 0.5 71
2019-08-12 13:00:00 16.5 42 Noroeste 55 Noroeste -- 1016 0.7 84
2019-08-12 12:00:00 17.4 20 Noroeste 35 Oeste -- 1016 1.2 75
2019-08-12 11:00:00 15.5 33 Noroeste 62 Noroeste -- 1015.8 1.9 92
2019-08-12 10:00:00 16.9 17 Oeste 31 Noroeste -- 1015.3 1.8 76
2019-08-12 09:00:00 16.2 12 Oeste 31 Oeste -- 1014.8 1.5 77
2019-08-12 08:00:00 16.2 17 Oeste 34 Oeste -- 1013.9 0.8 75
2019-08-12 07:00:00 15.8 8 Oeste 31 Oeste -- 1013.5 0.2 76
2019-08-12 06:00:00 16.1 15 Oeste 36 Noroeste -- 1013.3 -0.5 75
2019-08-12 05:00:00 16.5 14 Oeste 28 Sudoeste -- 1013.1 -1.1 74
2019-08-12 04:00:00 16.4 12 Oeste 26 Noroeste -- 1013.3 -1 74
2019-08-12 03:00:00 16.1 9 Noroeste 24 Oeste -- 1013.8 -0.5 79
2019-08-12 02:00:00 16.1 13 Oeste 27 Noroeste -- 1014.2 0 82
2019-08-12 01:00:00 14.3 9 Oeste 25 Oeste -- 1014.3 0.7 87
2019-08-12 00:00:00 14.7 9 Oeste 23 Oeste -- 1014.3 1.3 85
2019-08-11 23:00:00 13.4 8 Oeste 26 Noroeste -- 1014.2 1.6 88
2019-08-11 22:00:00 13.7 21 Noroeste 26 Noroeste -- 1013.6 1.4 83
2019-08-11 21:00:00 10.4 11 Noroeste 24 Noroeste -- 1013 0.7 85
2019-08-11 20:00:00 10 20 Noroeste 34 Noroeste -- 1012.6 0.5 86
2019-08-11 19:00:00 10.3 23 Noroeste 28 Noroeste -- 1012.2 0.3 87
2019-08-11 18:00:00 13.5 16 Noroeste 36 Noroeste -- 1012.3 0.2 93
2019-08-11 17:00:00 17.4 7 Noroeste 14 Noroeste -- 1012.1 -0.1 85
2019-08-11 16:00:00 19 0 Calma 13 Sudeste -- 1011.9 -0.6 85
2019-08-11 15:00:00 18.5 4 Sudeste 20 Sudeste -- 1012.1 0.1 90
2019-08-11 14:00:00 17.5 0 Calma 11 Nordeste -- 1012.2 0.4 92
2019-08-11 13:00:00 17.4 4 Norte 18 Oeste -- 1012.5 0.9 91
2019-08-11 12:00:00 16.4 10 Oeste 17 Noroeste -- 1012 0.3 91
2019-08-11 11:00:00 15.5 8 Noroeste 17 Norte -- 1011.8 0.3 89
2019-08-11 10:00:00 12.1 4 Norte 14 Oeste -- 1011.6 0.6 94
2019-08-11 09:00:00 10.1 3 Noroeste 17 Noroeste -- 1011.7 2.1 96
2019-08-11 08:00:00 10.1 4 Noroeste 35 Noroeste -- 1011.5 1.5 96
2019-08-11 07:00:00 10 31 Noroeste 53 Noroeste -- 1011 0.8 95
2019-08-11 06:00:00 14.5 41 Noroeste 71 Noroeste -- 1009.6 -2 95
2019-08-11 05:00:00 17.7 16 Oeste 35 Noroeste -- 1010 -2.6 90
2019-08-11 04:00:00 18 13 Noroeste 23 Noroeste -- 1010.2 -2.7 91
2019-08-11 03:00:00 17.9 5 Oeste 19 Noroeste -- 1011.6 -1.6 91
2019-08-11 02:00:00 17.8 6 Sur 21 Sudeste -- 1012.6 -1.4 92
2019-08-11 01:00:00 18.8 8 Oeste 14 Oeste -- 1012.9 -0.9 83
2019-08-11 00:00:00 18 4 Sur 17 Noroeste -- 1013.2 -0.4 89
2019-08-10 23:00:00 18.8 8 Oeste 20 Oeste -- 1014 0.6 83
2019-08-10 22:00:00 18 13 Oeste 27 Noroeste -- 1013.8 0.3 89
2019-08-10 21:00:00 19.7 19 Noroeste 23 Noroeste -- 1013.6 0.1 84
2019-08-10 20:00:00 22 4 Sudeste 9 Sudeste -- 1013.4 -0.6 71
2019-08-10 19:00:00 22.9 4 Sudeste 12 Sudeste -- 1013.5 -0.8 69
2019-08-10 18:00:00 22.5 4 Sudeste 10 Sudeste -- 1013.5 -1 71
2019-08-10 17:00:00 23 5 Sudeste 17 Sudeste -- 1014 -0.6 67
2019-08-10 16:00:00 23.3 5 Sudeste 16 Sudeste -- 1014.3 -0.4 68
2019-08-10 15:00:00 23.7 6 Sudeste 19 Sudeste -- 1014.5 -0.2 70
2019-08-10 14:00:00 23.6 6 Sudeste 14 Sudeste -- 1014.6 0.3 72
2019-08-10 13:00:00 21.4 2 Este 8 Este -- 1014.7 1 78
2019-08-10 12:00:00 20.2 6 Noroeste 39 Oeste -- 1014.7 1.5 77
2019-08-10 11:00:00 17.8 26 Noroeste 38 Noroeste -- 1014.3 1.8 88
2019-08-10 10:00:00 19.5 4 Sur 10 Oeste -- 1013.7 1.7 90
2019-08-10 09:00:00 19.1 6 Oeste 17 Oeste -- 1013.2 1.6 86
2019-08-10 08:00:00 18.6 12 Oeste 32 Noroeste -- 1012.5 1.4 87
2019-08-10 07:00:00 19.2 13 Noroeste 27 Norte -- 1012 1 89
2019-08-10 06:00:00 19.3 15 Oeste 23 Norte -- 1011.6 1 87
2019-08-10 05:00:00 19.9 15 Norte 24 Norte -- 1011.1 0.7 87
2019-08-10 04:00:00 19.5 6 Sur 15 Sur -- 1011 0.9 83
2019-08-10 03:00:00 19.6 10 Sur 14 Sur -- 1010.6 0.9 81
2019-08-10 02:00:00 19.4 10 Sur 15 Sur -- 1010.4 1 84
2019-08-10 01:00:00 19.9 9 Sur 15 Sur -- 1010.1 1.5 83
2019-08-10 00:00:00 19.9 8 Sur 14 Sur -- 1009.7 1.7 85
2019-08-09 23:00:00 19.9 10 Sur 17 Sur -- 1009.4 2.3 87
2019-08-09 22:00:00 20.5 11 Sur 14 Sur -- 1008.6 3 86
2019-08-09 21:00:00 21.8 0 Calma 8 Sudeste -- 1008 3.2 82
2019-08-09 20:00:00 21.4 6 Nordeste 14 Este -- 1007.1 2.6 84
2019-08-09 19:00:00 22.4 2 Sudeste 17 Este -- 1005.6 0.7 81
2019-08-09 18:00:00 22.3 6 Sudeste 29 Sudeste -- 1004.8 -0.3 84
2019-08-09 17:00:00 23.2 13 Sudeste 28 Sudeste -- 1004.5 -0.8 79
2019-08-09 16:00:00 22.6 10 Sudeste 27 Este -- 1004.9 -0.6 82
2019-08-09 15:00:00 23.4 12 Sudeste 24 Sudeste -- 1005.1 0.1 76
2019-08-09 14:00:00 25.2 8 Sudeste 16 Sudeste -- 1005.3 1.3 75
2019-08-09 13:00:00 21 8 Nordeste 15 Nordeste -- 1005.5 2.4 83
2019-08-09 12:00:00 22 8 Norte 23 Noroeste -- 1005 3.1 84
2019-08-09 11:00:00 20.6 19 Noroeste 45 Noroeste -- 1004 3.4 93
2019-08-09 10:00:00 21.4 25 Oeste 50 Noroeste -- 1003.1 2.7 92
2019-08-09 09:00:00 27.6 3 Norte 17 Sur -- 1001.9 1.9 53
2019-08-09 08:00:00 27.8 9 Sudeste 21 Sudeste -- 1000.6 0.5 50
2019-08-09 07:00:00 27.9 3 Sudoeste 24 Sur -- 1000.4 0.5 48
2019-08-09 06:00:00 28.4 8 Sur 29 Sudoeste -- 1000 0 48
2019-08-09 05:00:00 28.2 3 Este 39 Sur -- 1000.1 0 49
2019-08-09 04:00:00 28.8 8 Sudoeste 23 Sudoeste -- 999.9 -0.2 50
2019-08-09 03:00:00 28.4 5 Sudoeste 19 Sur -- 1000 0.1 49
2019-08-09 02:00:00 29.1 2 Sudeste 12 Sudoeste -- 1000.1 0.2 47
2019-08-09 01:00:00 26 5 Oeste 14 Sudoeste -- 1000.1 0.2 63
2019-08-09 00:00:00 25.9 10 Sudoeste 17 Sudoeste -- 999.9 0 64
2019-08-08 23:00:00 24.5 6 Oeste 18 Sur -- 999.9 -0.6 70
2019-08-08 22:00:00 25.5 17 Sudeste 31 Sudeste -- 999.9 -1.4 67
2019-08-08 21:00:00 26 18 Sudeste 27 Sudeste -- 999.9 -1.8 64
2019-08-08 20:00:00 27.3 18 Sudeste 26 Sudeste -- 1000.5 -1.5 63
2019-08-08 19:00:00 28.5 14 Sudeste 22 Sudeste -- 1001.3 -1.1 62
2019-08-08 18:00:00 29.3 14 Sudeste 20 Sudeste -- 1001.7 -0.8 61
2019-08-08 17:00:00 30.7 10 Sudeste 17 Sudeste -- 1002 -0.8 54
2019-08-08 16:00:00 27.9 8 Sudeste 15 Este -- 1002.4 -0.7 62
2019-08-08 15:00:00 31.9 6 Oeste 35 Oeste -- 1002.5 -1 45
2019-08-08 14:00:00 31 6 Oeste 27 Noroeste -- 1002.8 -0.5 45
2019-08-08 13:00:00 29.8 11 Sur 31 Sur -- 1003.1 0 45
2019-08-08 12:00:00 29.4 8 Sudoeste 26 Sudoeste -- 1003.5 0.6 49
2019-08-08 11:00:00 28.1 12 Sur 35 Sudeste -- 1003.3 0.4 52
2019-08-08 10:00:00 26.3 11 Sur 30 Sudeste -- 1003.1 0.1 56
2019-08-08 09:00:00 23.2 8 Sur 17 Sur -- 1002.9 -0.2 67
2019-08-08 08:00:00 20.5 10 Sur 16 Sur -- 1002.9 -0.5 75
2019-08-08 07:00:00 19.1 13 Sur 18 Sur -- 1003 -0.9 82
2019-08-08 06:00:00 17.9 7 Sur 15 Sudeste -- 1003.1 -1.3 90
2019-08-08 05:00:00 16.9 6 Sur 14 Sur -- 1003.4 -1.1 95
2019-08-08 04:00:00 17.6 6 Sudeste 10 Sur -- 1003.9 -0.8 94
2019-08-08 03:00:00 7.6 0 Calma 12 Sudeste -- 1004.4 -0.4 94
2019-08-08 02:00:00 16.9 9 Sudeste 17 Sudeste -- 1004.5 -0.5 94
2019-08-08 01:00:00 18.2 9 Sur 19 Sudeste -- 1004.7 -0.3 94
2019-08-08 00:00:00 18.7 12 Sudeste 18 Sudeste -- 1004.8 0.4 93
2019-08-07 23:00:00 18.8 0 Calma 10 Nordeste -- 1005 0.8 92
2019-08-07 22:00:00 19.3 2 Sudeste 11 Sudeste -- 1005 0.6 91
2019-08-07 21:00:00 20.1 6 Sudeste 14 Sudeste -- 1004.4 -0.2 89
2019-08-07 20:00:00 21.9 6 Sudeste 14 Sur -- 1004.2 -0.7 82
2019-08-07 19:00:00 22.6 8 Sudeste 21 Sudeste -- 1004.4 -1.3 80
2019-08-07 18:00:00 22.7 10 Sudeste 20 Sur -- 1004.6 -1.6 76
2019-08-07 17:00:00 23.7 9 Sudeste 19 Sudeste -- 1004.9 -1.8 72
2019-08-07 16:00:00 23.9 8 Sudeste 18 Sudeste -- 1005.7 -1.4 71
2019-08-07 15:00:00 23.7 6 Sudeste 14 Sudeste -- 1006.2 -1 72
2019-08-07 14:00:00 23.6 4 Sudeste 13 Este -- 1006.7 -0.3 71
2019-08-07 13:00:00 21.7 3 Este 10 Nordeste -- 1007.1 0.5 75
2019-08-07 12:00:00 21.2 0 Calma 9 Noroeste -- 1007.2 1.5 78
2019-08-07 11:00:00 20.1 5 Nordeste 9 Nordeste -- 1007 1.4 82
2019-08-07 10:00:00 19.7 0 Calma 12 Sudeste -- 1006.6 1.4 82
2019-08-07 09:00:00 17.8 6 Sur 11 Sur -- 1005.7 0.9 92
2019-08-07 08:00:00 16.3 7 Sur 13 Oeste -- 1005.6 0.9 93
2019-08-07 07:00:00 17.2 9 Oeste 14 Noroeste -- 1005.2 1 91
2019-08-07 06:00:00 16.6 0 Calma 13 Oeste -- 1004.8 -0.1 92
2019-08-07 05:00:00 15.8 10 Sur 18 Sur -- 1004.7 -1.3 93
2019-08-07 04:00:00 15.8 12 Sur 17 Sur -- 1004.2 -2.6 94
2019-08-07 03:00:00 16.3 10 Sur 34 Sur -- 1004.9 -2.3 93
2019-08-07 02:00:00 16.2 7 Sur 15 Sur -- 1006 -1.7 94
2019-08-07 01:00:00 16.3 9 Sur 27 Sur -- 1006.8 -0.5 94
2019-08-07 00:00:00 16.8 8 Sur 14 Sudoeste -- 1007.2 0 93
2019-08-06 23:00:00 18.6 3 Oeste 26 Noroeste -- 1007.7 1.2 88
2019-08-06 22:00:00 18.7 14 Oeste 22 Oeste -- 1007.3 1.3 87
2019-08-06 21:00:00 18.6 12 Noroeste 24 Noroeste -- 1007.2 1.5 88
2019-08-06 20:00:00 19.3 10 Noroeste 16 Noroeste -- 1006.5 0.7 86
2019-08-06 19:00:00 19.2 10 Noroeste 13 Noroeste -- 1006 -0.2 85
2019-08-06 18:00:00 19.6 4 Nordeste 9 Norte -- 1005.7 -0.9 84
2019-08-06 17:00:00 20.6 4 Nordeste 12 Nordeste -- 1005.8 -0.9 82
2019-08-06 16:00:00 22 4 Este 11 Este -- 1006.2 -0.8 76
2019-08-06 15:00:00 21.6 4 Este 11 Nordeste -- 1006.6 -0.4 74
2019-08-06 14:00:00 20.9 3 Este 12 Este -- 1006.7 -0.6 78
2019-08-06 13:00:00 21.2 2 Sudeste 12 Sudeste -- 1007 -0.3 74
2019-08-06 12:00:00 19.2 5 Sudeste 10 Sudeste -- 1007 0.2 84
2019-08-06 11:00:00 17.7 3 Sudeste 10 Sudeste -- 1007.3 0.2 92
2019-08-06 10:00:00 16.6 4 Sudeste 15 Sur -- 1007.3 -0.1 94
2019-08-06 09:00:00 15.2 11 Sur 16 Sur -- 1006.8 -0.6 95
2019-08-06 08:00:00 16 3 Sur 12 Sur -- 1007.1 -0.7 94
2019-08-06 07:00:00 16.3 4 Sur 11 Sur -- 1007.4 -0.7 94
2019-08-06 06:00:00 15.4 7 Sur 12 Sur -- 1007.4 -1 94
2019-08-06 05:00:00 16.1 6 Sur 12 Sudoeste -- 1007.8 -1.2 94
2019-08-06 04:00:00 15.9 5 Sur 9 Sur -- 1008.1 -1.1 94
2019-08-06 03:00:00 16.6 5 Sur 10 Sur -- 1008.4 -0.9 93
2019-08-06 02:00:00 16.3 6 Sur 10 Sur -- 1009 -0.5 93
2019-08-06 01:00:00 16.7 5 Sur 8 Sur -- 1009.2 0.1 92
2019-08-06 00:00:00 17.4 4 Norte 6 Norte -- 1009.3 0.6 90
2019-08-05 23:00:00 18.4 0 Calma 7 Nordeste -- 1009.5 0.6 88
2019-08-05 22:00:00 19.1 0 Calma 8 Este -- 1009.1 0.4 84
2019-08-05 21:00:00 21.2 0 Calma 9 Este -- 1008.7 -0.4 76
2019-08-05 20:00:00 22.2 3 Nordeste 9 Este -- 1008.9 -0.4 74
2019-08-05 19:00:00 22.8 0 Calma 10 Este -- 1008.7 -1.1 71
2019-08-05 18:00:00 21.1 4 Nordeste 10 Nordeste -- 1009.1 -0.5 76
2019-08-05 17:00:00 20 4 Nordeste 12 Nordeste -- 1009.3 -0.4 80
2019-08-05 16:00:00 19.1 4 Nordeste 12 Nordeste -- 1009.8 -0.2 84
2019-08-05 15:00:00 19.4 3 Nordeste 13 Nordeste -- 1009.6 -0.7 80
2019-08-05 14:00:00 19 2 Nordeste 9 Nordeste -- 1009.7 -0.7 83
2019-08-05 13:00:00 18 4 Noroeste 8 Noroeste -- 1010 -0.6 88
2019-08-05 12:00:00 17.6 3 Norte 10 Norte -- 1010.3 -0.1 89
2019-08-05 11:00:00 17.2 6 Sudoeste 9 Sudoeste -- 1010.4 0 90
2019-08-05 10:00:00 16.8 2 Sudoeste 8 Sudoeste -- 1010.6 0.4 92
2019-08-05 09:00:00 15.7 0 Calma 8 Sudoeste -- 1010.4 0.5 95
2019-08-05 08:00:00 12.9 5 Sudoeste 9 Sudoeste -- 1010.4 0.3 95
2019-08-05 07:00:00 12.8 6 Sur 9 Sur -- 1010.2 0 95
2019-08-05 06:00:00 14.3 6 Sur 12 Sur -- 1009.9 -0.6 95
2019-08-05 05:00:00 14.1 5 Sur 11 Sur -- 1010.1 -0.7 95
2019-08-05 04:00:00 15.1 6 Sur 12 Sur -- 1010.2 -0.8 94
2019-08-05 03:00:00 15.3 7 Sur 11 Sur -- 1010.5 -0.7 93
2019-08-05 02:00:00 16.7 5 Oeste 15 Oeste -- 1010.8 -0.5 90
2019-08-05 01:00:00 16.5 8 Oeste 16 Oeste -- 1011 0 92
2019-08-05 00:00:00 16.9 8 Oeste 14 Noroeste -- 1011.2 0.8 91
2019-08-04 23:00:00 16.6 7 Oeste 14 Noroeste -- 1011.3 1.3 92
2019-08-04 22:00:00 17.5 8 Oeste 21 Oeste -- 1011 1.4 89
2019-08-04 21:00:00 17.4 16 Noroeste 21 Noroeste -- 1010.4 1.1 89
2019-08-04 20:00:00 17.6 10 Noroeste 14 Noroeste -- 1010 0.5 88
2019-08-04 19:00:00 18 10 Noroeste 15 Noroeste -- 1009.6 0 87
2019-08-04 18:00:00 18.6 6 Noroeste 19 Noroeste -- 1009.3 -0.2 87
2019-08-04 17:00:00 17.7 13 Noroeste 19 Noroeste -- 1009.5 0.1 88
2019-08-04 16:00:00 18 13 Noroeste 21 Noroeste -- 1009.6 -0.1 88
2019-08-04 15:00:00 18.1 17 Noroeste 22 Noroeste -- 1009.5 -0.1 87
2019-08-04 14:00:00 17.2 15 Noroeste 24 Noroeste -- 1009.4 -0.4 90
2019-08-04 13:00:00 16.6 18 Noroeste 25 Oeste -- 1009.7 -0.2 92
2019-08-04 12:00:00 17.4 16 Noroeste 25 Noroeste -- 1009.6 -0.1 92
2019-08-04 11:00:00 18.6 16 Noroeste 21 Noroeste -- 1009.8 0.4 86
2019-08-04 10:00:00 18.3 6 Oeste 17 Oeste -- 1009.9 0.7 84
2019-08-04 09:00:00 18.1 9 Oeste 16 Oeste -- 1009.7 0.8 84
2019-08-04 08:00:00 17.2 5 Oeste 12 Oeste -- 1009.4 0.5 89
2019-08-04 07:00:00 15.3 6 Sur 12 Sur -- 1009.2 0 92
2019-08-04 06:00:00 15.6 4 Sudoeste 9 Oeste -- 1008.9 -0.4 93
2019-08-04 05:00:00 14.9 0 Calma 7 Sudoeste -- 1008.9 -0.2 94
2019-08-04 04:00:00 15.7 0 Calma 8 Sur -- 1009.2 -0.1 93
2019-08-04 03:00:00 16.8 4 Sudoeste 18 Noroeste -- 1009.3 0 91
2019-08-04 02:00:00 17.3 10 Noroeste 18 Noroeste -- 1009.1 0 88
2019-08-04 01:00:00 17.3 8 Oeste 20 Oeste -- 1009.3 1 88
2019-08-04 00:00:00 17.1 12 Noroeste 23 Noroeste -- 1009.3 1.5 91
2019-08-03 23:00:00 17.7 15 Noroeste 40 Noroeste -- 1009.1 1.3 91
2019-08-03 22:00:00 19.2 33 Noroeste 45 Noroeste -- 1008.3 0.9 93
2019-08-03 21:00:00 19.5 28 Noroeste 37 Noroeste -- 1007.8 0.2 92
2019-08-03 20:00:00 20.6 10 Oeste 17 Oeste -- 1007.8 -0.1 86
2019-08-03 19:00:00 22.5 0 Calma 11 Noroeste -- 1007.4 -0.5 80
2019-08-03 18:00:00 21.6 9 Norte 14 Norte -- 1007.6 -0.4 82
2019-08-03 17:00:00 21.2 9 Noroeste 12 Norte -- 1007.9 -0.4 81
2019-08-03 16:00:00 22.3 2 Este 10 Este -- 1007.9 -0.6 76
2019-08-03 15:00:00 23 3 Este 13 Este -- 1008 -0.8 76
2019-08-03 14:00:00 22.6 5 Sudeste 19 Este -- 1008.3 -0.8 76
2019-08-03 13:00:00 21.6 6 Sudeste 14 Sur -- 1008.5 -0.8 76
2019-08-03 12:00:00 21.2 4 Sudeste 12 Sudeste -- 1008.8 -0.6 79
2019-08-03 11:00:00 20.5 5 Sudeste 12 Sudeste -- 1009.1 -0.2 82
2019-08-03 10:00:00 19.9 4 Sudeste 14 Sudeste -- 1009.3 -0.1 86
2019-08-03 09:00:00 18.1 9 Sudeste 12 Sudeste -- 1009.4 0.2 93
2019-08-03 08:00:00 16.7 8 Sur 12 Sur -- 1009.3 -0.5 95
2019-08-03 07:00:00 15.8 7 Sur 11 Sur -- 1009.4 -0.6 95
2019-08-03 06:00:00 16.1 6 Sur 9 Sur -- 1009.2 -1.3 95
2019-08-03 05:00:00 16.3 3 Sur 8 Sur -- 1009.8 -0.9 94
2019-08-03 04:00:00 17.4 6 Sur 11 Sur -- 1010 -0.9 93
2019-08-03 03:00:00 17.8 8 Sur 14 Sur -- 1010.5 -0.6 91
2019-08-03 02:00:00 18.6 4 Sudeste 12 Sudeste -- 1010.7 -0.7 91
2019-08-03 01:00:00 18.5 3 Sudeste 12 Este -- 1010.9 -0.2 89
2019-08-03 00:00:00 18.5 2 Sudeste 10 Sur -- 1011.1 0.1 87
2019-08-02 23:00:00 18.5 0 Calma 9 Nordeste -- 1011.4 0.4 86
2019-08-02 22:00:00 18.7 0 Calma 10 Este -- 1011.1 0 82
2019-08-02 21:00:00 21.2 0 Calma 10 Nordeste -- 1011 -0.4 74
2019-08-02 20:00:00 22.7 0 Calma 10 Nordeste -- 1011 -0.7 70
2019-08-02 19:00:00 22.5 3 Nordeste 12 Este -- 1011.1 -0.9 71
2019-08-02 18:00:00 22.3 4 Nordeste 13 Nordeste -- 1011.4 -0.9 69
2019-08-02 17:00:00 22.2 4 Nordeste 15 Este -- 1011.7 -0.7 70
2019-08-02 16:00:00 21.1 5 Este 16 Nordeste -- 1012 -0.5 72
2019-08-02 15:00:00 20.6 6 Nordeste 14 Este -- 1012.3 -0.2 74
2019-08-02 14:00:00 20.5 3 Nordeste 17 Nordeste -- 1012.4 0.2 80
2019-08-02 13:00:00 19.3 2 Nordeste 14 Nordeste -- 1012.5 0.4 84
2019-08-02 12:00:00 18.4 4 Noroeste 9 Noroeste -- 1012.5 1 88
2019-08-02 11:00:00 18.6 2 Oeste 8 Oeste -- 1012.2 0.8 84
2019-08-02 10:00:00 19.8 4 Oeste 9 Noroeste -- 1012.1 1.1 81
2019-08-02 09:00:00 18.4 4 Noroeste 9 Noroeste -- 1011.5 0.6 89
2019-08-02 08:00:00 17.7 3 Sudoeste 9 Sur -- 1011.4 0.2 93
2019-08-02 07:00:00 17.2 4 Sudoeste 9 Sur -- 1011 -0.3 93
2019-08-02 06:00:00 17.7 3 Oeste 9 Oeste -- 1010.9 -0.6 92
2019-08-02 05:00:00 18.1 7 Oeste 14 Oeste -- 1011.2 -0.6 90
2019-08-02 04:00:00 18.1 10 Oeste 16 Oeste -- 1011.3 -0.5 89
2019-08-02 03:00:00 17.9 9 Oeste 15 Oeste -- 1011.5 -0.4 90
2019-08-02 02:00:00 18.1 9 Oeste 15 Noroeste -- 1011.8 0.1 90
2019-08-02 01:00:00 18.1 8 Oeste 19 Noroeste -- 1011.8 0.7 91
2019-08-02 00:00:00 18.1 9 Oeste 33 Oeste -- 1011.9 1.1 92
2019-08-01 23:00:00 18 10 Oeste 19 Noroeste -- 1011.7 1.3 91
2019-08-01 22:00:00 17.9 7 Oeste 16 Oeste -- 1011.1 1.1 91
2019-08-01 21:00:00 18 9 Oeste 18 Oeste -- 1010.8 1.1 91
2019-08-01 20:00:00 17.9 8 Oeste 17 Noroeste -- 1010.4 1.2 90
2019-08-01 19:00:00 18.2 13 Noroeste 22 Noroeste -- 1010 1.6 91
2019-08-01 18:00:00 17.9 17 Norte 23 Noroeste -- 1009.7 1.4 92
2019-08-01 17:00:00 18.1 12 Norte 72 Noroeste -- 1009.2 0.9 92
2019-08-01 16:00:00 18.8 35 Noroeste 66 Noroeste -- 1008.4 0.1 90
2019-08-01 15:00:00 18.9 33 Noroeste 40 Noroeste -- 1008.3 -0.1 89
2019-08-01 14:00:00 18.9 26 Noroeste 33 Noroeste -- 1008.3 -0.1 86
2019-08-01 13:00:00 18.7 20 Noroeste 25 Noroeste -- 1008.3 0.3 88
2019-08-01 12:00:00 18.8 14 Noroeste 27 Noroeste -- 1008.4 0.3 87
2019-08-01 11:00:00 18.2 14 Noroeste 23 Noroeste -- 1008.4 -0.1 87
2019-08-01 10:00:00 17.2 4 Sudoeste 13 Sur -- 1008 0.3 94
2019-08-01 09:00:00 16.4 5 Sudeste 18 Este -- 1008.1 -0.1 94
2019-08-01 08:00:00 16.8 2 Sudeste 31 Sudoeste -- 1008.5 -0.6 91
2019-08-01 07:00:00 16.2 18 Sudeste 52 Este -- 1007.7 -1.5 94
2019-08-01 06:00:00 16.5 15 Sudeste 36 Sudoeste -- 1008.2 -1.7 95
2019-08-01 05:00:00 18.8 8 Nordeste 17 Nordeste -- 1009.1 -1.4 91
2019-08-01 04:00:00 18.3 3 Nordeste 19 Este -- 1009.2 -1.8 91
2019-08-01 03:00:00 18.1 3 Nordeste 17 Nordeste -- 1009.9 -1.5 89
2019-08-01 02:00:00 18.5 2 Nordeste 18 Nordeste -- 1010.5 -1 86
2019-08-01 01:00:00 19 2 Nordeste 20 Nordeste -- 1011 -0.3 84
2019-08-01 00:00:00 18.9 7 Nordeste 22 Este -- 1011.4 0.3 83
2019-07-31 23:00:00 19 3 Nordeste 18 Nordeste -- 1011.5 0.4 82
2019-07-31 22:00:00 19 4 Nordeste 19 Nordeste -- 1011.3 0.2 80
2019-07-31 21:00:00 19.3 2 Norte 17 Nordeste -- 1011.1 -0.5 76
2019-07-31 20:00:00 20.1 5 Nordeste 18 Nordeste -- 1011.1 -0.8 74
2019-07-31 19:00:00 20.1 6 Nordeste 15 Este -- 1011.1 -1.2 71
2019-07-31 18:00:00 19.8 7 Nordeste 15 Nordeste -- 1011.6 -1.1 71
2019-07-31 17:00:00 20.1 6 Nordeste 20 Nordeste -- 1011.9 -1.3 67
2019-07-31 16:00:00 21 4 Nordeste 17 Nordeste -- 1012.3 -1.4 63
2019-07-31 15:00:00 21.3 2 Sudeste 16 Este -- 1012.7 -1.5 66
2019-07-31 14:00:00 21.4 4 Sudeste 17 Este -- 1013.2 -1 67
2019-07-31 13:00:00 20.7 6 Nordeste 13 Este -- 1013.7 -0.5 68
2019-07-31 12:00:00 21.3 3 Sudeste 12 Este -- 1014.2 0 67
2019-07-31 11:00:00 19.5 2 Nordeste 8 Nordeste -- 1014.2 0 74
2019-07-31 10:00:00 18.2 0 Calma 11 Sur -- 1014.2 0.1 76
2019-07-31 09:00:00 17.5 8 Sur 14 Sur -- 1014.2 0.2 79
2019-07-31 08:00:00 13.9 9 Sur 17 Sur -- 1014.2 -0.2 90
2019-07-31 07:00:00 12.1 8 Sur 14 Sur -- 1014.1 -0.5 92
2019-07-31 06:00:00 12.9 10 Sur 14 Sur -- 1014 -0.9 91
2019-07-31 05:00:00 13.3 10 Sur 16 Sur -- 1014.4 -0.6 91
2019-07-31 04:00:00 13.7 6 Sudoeste 12 Sudoeste -- 1014.6 -0.6 89
2019-07-31 03:00:00 14.7 6 Sudoeste 13 Sudoeste -- 1014.9 -0.6 86
2019-07-31 02:00:00 16 6 Oeste 10 Oeste -- 1015 -0.4 79
2019-07-31 01:00:00 14.7 5 Sudoeste 9 Sudoeste -- 1015.2 0.3 84
2019-07-31 00:00:00 15.7 5 Sudoeste 12 Oeste -- 1015.5 0.8 79
2019-07-30 23:00:00 17.5 8 Noroeste 21 Noroeste -- 1015.4 0.9 71
2019-07-30 22:00:00 18 18 Noroeste 26 Noroeste -- 1014.9 0.6 70
2019-07-30 21:00:00 18.4 19 Noroeste 31 Noroeste -- 1014.7 0.4 73
2019-07-30 20:00:00 19.4 23 Noroeste 36 Noroeste -- 1014.5 0.1 70
2019-07-30 19:00:00 19.1 31 Noroeste 45 Noroeste -- 1014.3 -0.2 75
2019-07-30 18:00:00 19.1 35 Noroeste 45 Noroeste -- 1014.3 0.3 75
2019-07-30 17:00:00 18.6 33 Noroeste 70 Noroeste -- 1014.4 0.6 75
2019-07-30 16:00:00 19.3 32 Noroeste 72 Noroeste -- 1014.5 0.8 69
2019-07-30 15:00:00 18.6 46 Noroeste 70 Noroeste -- 1014 0.2 73
2019-07-30 14:00:00 19.1 39 Noroeste 71 Noroeste -- 1013.8 0.2 70
2019-07-30 13:00:00 18 41 Noroeste 52 Noroeste -- 1013.7 0 74
2019-07-30 12:00:00 18.9 28 Noroeste 49 Noroeste -- 1013.8 0.7 69
2019-07-30 11:00:00 18.1 29 Noroeste 45 Noroeste -- 1013.6 1.2 68
2019-07-30 10:00:00 17.7 13 Oeste 32 Oeste -- 1013.7 1.7 71
2019-07-30 09:00:00 17.2 10 Oeste 35 Oeste -- 1013.1 1.5 75
2019-07-30 08:00:00 16.8 13 Oeste 30 Oeste -- 1012.4 1.1 78
2019-07-30 07:00:00 17.2 15 Oeste 34 Oeste -- 1012 0.9 75
2019-07-30 06:00:00 17.2 16 Oeste 39 Oeste -- 1011.6 0.6 78
2019-07-30 05:00:00 17.3 16 Oeste 33 Oeste -- 1011.3 0.3 75
2019-07-30 04:00:00 17.2 13 Oeste 34 Oeste -- 1011.1 0.2 76
2019-07-30 03:00:00 17 11 Oeste 28 Oeste -- 1011 0.7 80
2019-07-30 02:00:00 16 10 Oeste 41 Noroeste -- 1011 0.8 88
2019-07-30 01:00:00 17.3 8 Oeste 35 Oeste -- 1010.9 1.6 80
2019-07-30 00:00:00 17.8 12 Oeste 26 Oeste -- 1010.3 1.8 79
2019-07-29 23:00:00 17.1 7 Oeste 33 Oeste -- 1010.2 2.5 85
2019-07-29 22:00:00 17.8 10 Oeste 42 Oeste -- 1009.3 1.8 84
2019-07-29 21:00:00 19.2 10 Oeste 38 Norte -- 1008.5 1.3 72
2019-07-29 20:00:00 20 25 Noroeste 32 Oeste -- 1007.7 1.1 71
2019-07-29 19:00:00 20.2 24 Noroeste 32 Noroeste -- 1007.5 1.4 71
2019-07-29 18:00:00 20 25 Noroeste 38 Noroeste -- 1007.2 1.8 71
2019-07-29 17:00:00 19.9 30 Noroeste 71 Noroeste -- 1006.6 1.7 77
2019-07-29 16:00:00 19.6 33 Noroeste 72 Noroeste -- 1006.1 1.5 82
2019-07-29 15:00:00 20.3 39 Noroeste 53 Noroeste -- 1005.4 1.8 79
2019-07-29 14:00:00 20.6 43 Noroeste 53 Noroeste -- 1004.9 1.3 78
2019-07-29 13:00:00 20.2 39 Noroeste 53 Noroeste -- 1004.6 1.4 80
2019-07-29 12:00:00 20.3 41 Noroeste 71 Noroeste -- 1003.6 0.8 82
2019-07-29 11:00:00 20 22 Noroeste 29 Noroeste -- 1003.6 1.3 82
2019-07-29 10:00:00 20.5 13 Noroeste 20 Oeste -- 1003.2 1.4 64
2019-07-29 09:00:00 18.2 16 Noroeste 19 Noroeste -- 1002.8 0.8 82
2019-07-29 08:00:00 14.7 0 Calma 19 Sur -- 1002.3 0.2 91
2019-07-29 07:00:00 13.3 12 Sur 17 Sur -- 1001.8 -0.6 93
2019-07-29 06:00:00 13.9 9 Sur 15 Sur -- 1002 -0.7 91
2019-07-29 05:00:00 15.7 11 Sur 15 Sur -- 1002.1 -0.8 86
2019-07-29 04:00:00 15.2 8 Sur 12 Sudeste -- 1002.4 -0.9 91
2019-07-29 03:00:00 15.2 8 Sur 18 Sur -- 1002.7 -1.1 90
2019-07-29 02:00:00 15.5 13 Sur 19 Sur -- 1002.9 -1.4 89
2019-07-29 01:00:00 16.3 15 Sur 21 Sur -- 1003.3 -1.1 84
2019-07-29 00:00:00 16.7 13 Sur 18 Sudeste -- 1003.8 -0.8 84
2019-07-28 23:00:00 17.4 14 Sur 22 Sudeste -- 1004.3 -0.8 80
2019-07-28 22:00:00 19 12 Sudeste 22 Este -- 1004.4 -0.7 74
2019-07-28 21:00:00 20.1 9 Sudeste 22 Sudeste -- 1004.6 -1.2 72
2019-07-28 20:00:00 21.2 9 Sudeste 21 Sudeste -- 1005.1 -1.1 67
2019-07-28 19:00:00 22.2 5 Sudeste 17 Este -- 1005.1 -1.5 64
2019-07-28 18:00:00 23 4 Sudeste 13 Sudeste -- 1005.8 -1.4 63
2019-07-28 17:00:00 21.8 3 Este 13 Este -- 1006.2 -1 67
2019-07-28 16:00:00 20.3 3 Nordeste 13 Nordeste -- 1006.6 -1 72
2019-07-28 15:00:00 19.5 7 Norte 12 Norte -- 1007.2 -0.4 71
2019-07-28 14:00:00 19.9 2 Sudoeste 12 Sudoeste -- 1007.2 -0.4 71
2019-07-28 13:00:00 19 6 Sur 18 Sur -- 1007.6 0.2 76
2019-07-28 12:00:00 17.8 12 Sudoeste 16 Sudoeste -- 1007.6 0.7 82
2019-07-28 11:00:00 17 6 Oeste 33 Noroeste -- 1007.6 0.6 83
2019-07-28 10:00:00 17 20 Noroeste 35 Noroeste -- 1007.4 0.6 87
2019-07-28 09:00:00 17.4 14 Oeste 28 Sudoeste -- 1006.9 0.4 79
2019-07-28 08:00:00 16.6 13 Oeste 32 Oeste -- 1007 0.1 82
2019-07-28 07:00:00 16.5 11 Oeste 23 Oeste -- 1006.8 0.1 85
2019-07-28 06:00:00 16.5 9 Oeste 25 Oeste -- 1006.5 -0.3 88
2019-07-28 05:00:00 15.9 17 Oeste 37 Oeste -- 1006.9 0.2 91
2019-07-28 04:00:00 16.6 11 Oeste 29 Oeste -- 1006.7 -0.2 85
2019-07-28 03:00:00 16.8 16 Oeste 32 Sudoeste -- 1006.8 -0.1 84
2019-07-28 02:00:00 16.3 10 Oeste 28 Noroeste -- 1006.7 -0.2 88
2019-07-28 01:00:00 16.6 13 Oeste 30 Sudoeste -- 1006.9 0.5 86
2019-07-28 00:00:00 16.6 14 Oeste 32 Oeste -- 1006.9 0.8 85
2019-07-27 23:00:00 16.3 18 Oeste 34 Oeste -- 1006.9 1.9 87
2019-07-26 12:00:00 16.5 18 Oeste 56 Noroeste -- 1008.3 2.3 96
2019-07-26 11:00:00 17.8 20 Oeste 34 Noroeste -- 1007.7 0.2 95
2019-07-26 10:00:00 17.5 13 Oeste 49 Noroeste -- 1008 0.6 95
2019-07-26 09:00:00 17.4 30 Noroeste 47 Noroeste -- 1006 -1.7 96
2019-07-26 08:00:00 18.7 25 Noroeste 32 Noroeste -- 1007.5 -0.3 96
2019-07-26 07:00:00 18.9 8 Norte 15 Noroeste -- 1007.4 -0.5 95
2019-07-26 06:00:00 18.6 4 Noroeste 13 Noroeste -- 1007.7 -0.8 95
2019-07-26 05:00:00 18.6 0 Calma 13 Norte -- 1007.8 -0.7 95
2019-07-26 04:00:00 18.3 7 Noroeste 40 Noroeste -- 1007.9 -0.4 95
2019-07-26 03:00:00 19 4 Sudoeste 14 Oeste -- 1008.5 0.2 95
2019-07-26 02:00:00 19.7 6 Sur 12 Sur -- 1008.5 0.4 94
2019-07-26 01:00:00 20.4 7 Oeste 24 Noroeste -- 1008.3 1 92
2019-07-26 00:00:00 20 16 Noroeste 26 Noroeste -- 1008.3 2.2 92
2019-07-25 23:00:00 20.1 11 Oeste 53 Noroeste -- 1008.1 0 95
2019-07-25 22:00:00 20.7 37 Noroeste 51 Noroeste -- 1007.3 2.4 95
2019-07-25 21:00:00 20.5 30 Noroeste 45 Noroeste -- 1006.1 0.7 96
2019-07-25 20:00:00 20.9 13 Sudoeste 37 Noroeste -- 1008.1 2.9 95
2019-07-25 19:00:00 20.9 28 Noroeste 39 Noroeste -- 1004.9 -0.2 94
2019-07-25 18:00:00 21.6 26 Noroeste 34 Noroeste -- 1005.4 0.6 92
2019-07-25 17:00:00 21.9 22 Noroeste 27 Noroeste -- 1005.2 0.2 91
2019-07-25 16:00:00 22.3 15 Noroeste 21 Noroeste -- 1005.1 0 90
2019-07-25 15:00:00 22.7 10 Noroeste 14 Noroeste -- 1004.8 -0.2 90
2019-07-25 14:00:00 22.3 7 Norte 16 Noroeste -- 1005 0.2 91
2019-07-25 13:00:00 22.7 13 Noroeste 16 Noroeste -- 1005.1 0.7 90
2019-07-25 12:00:00 24.4 8 Norte 14 Norte -- 1005 1.1 84
2019-07-25 11:00:00 24.3 7 Sudeste 15 Sudeste -- 1004.8 1.3 83
2019-07-25 10:00:00 24.4 6 Sudeste 12 Sudeste -- 1004.4 0.8 86
2019-07-25 09:00:00 22 6 Sur 15 Sur -- 1003.9 0.6 93
2019-07-25 08:00:00 20.4 9 Sur 14 Sur -- 1003.5 0 94
2019-07-25 07:00:00 19.9 8 Sur 12 Sur -- 1003.6 0.1 94
2019-07-25 06:00:00 20 4 Sur 8 Sur -- 1003.3 -0.1 94
2019-07-25 05:00:00 20.3 3 Sudeste 11 Noroeste -- 1003.5 0.5 92
2019-07-25 04:00:00 21.3 7 Oeste 15 Oeste -- 1003.5 0.4 91
2019-07-25 03:00:00 21.6 8 Oeste 33 Noroeste -- 1003.4 0.8 89
2019-07-25 02:00:00 21.6 21 Noroeste 33 Noroeste -- 1003 0 94
2019-07-25 01:00:00 21.9 26 Noroeste 48 Noroeste -- 1003.1 0.4 94
2019-07-25 00:00:00 21.7 17 Sur 25 Sur -- 1002.6 -0.4 84
2019-07-24 23:00:00 21.8 18 Sudeste 33 Sur -- 1003 0.6 89
2019-07-24 22:00:00 22.1 23 Sudeste 28 Sudeste -- 1002.7 -2.1 84
2019-07-24 21:00:00 25.5 18 Sur 39 Sudeste -- 1003 -1.2 66
2019-07-24 20:00:00 22 27 Sudeste 45 Sudeste -- 1002.4 -2.6 89
2019-07-24 19:00:00 24.7 10 Sur 32 Sudoeste -- 1004.8 -0.9 80
2019-07-24 18:00:00 27.4 11 Sudeste 19 Sudeste -- 1004.2 -2.3 73
2019-07-24 17:00:00 27.2 14 Sudeste 24 Sudeste -- 1005 -2 73
2019-07-24 16:00:00 25.8 10 Sudeste 18 Sudeste -- 1005.7 -2 78
2019-07-24 15:00:00 25.5 9 Sudeste 19 Sudeste -- 1006.5 -2 79
2019-07-24 14:00:00 25 11 Sudeste 20 Sur -- 1007 -1.7 80
2019-07-24 13:00:00 25 8 Sudeste 17 Este -- 1007.7 -1.3 78
2019-07-24 12:00:00 24.7 5 Nordeste 13 Este -- 1008.5 -0.6 78
2019-07-24 11:00:00 24.8 0 Calma 10 Este -- 1008.7 -0.3 81
2019-07-24 10:00:00 23.5 3 Este 11 Sudeste -- 1009 0.3 87
2019-07-24 09:00:00 -- 5 Sudeste 9 Sudeste -- 1009.1 0.6 --
2019-07-24 08:00:00 20.8 0 Calma 5 Este -- 1009 1.1 94
2019-07-24 07:00:00 20.4 3 Noroeste 19 Sur -- 1008.7 0.5 94
2019-07-24 06:00:00 20.3 6 Sur 13 Nordeste -- 1008.5 -0.5 95
2019-07-24 05:00:00 20.6 2 Sudeste 19 Sudeste -- 1007.9 -1.6 95
2019-07-24 04:00:00 20 13 Sudeste 17 Sur -- 1008.2 -1.3 95
2019-07-24 03:00:00 20.2 9 Sur 17 Sur -- 1009 -1.7 94
2019-07-24 02:00:00 20.6 8 Noroeste 21 Noroeste -- 1009.5 -1 94
2019-07-24 01:00:00 20.8 5 Sur 35 Noroeste -- 1009.5 -0.7 92
2019-07-24 00:00:00 21.1 20 Oeste 41 Noroeste -- 1010.7 3.1 91
2019-07-23 23:00:00 20.6 5 Sudoeste 48 Noroeste -- 1010.5 2.4 91
2019-07-23 22:00:00 20.7 29 Noroeste 56 Noroeste -- 1010.2 4.9 93
2019-07-23 21:00:00 21.1 32 Oeste 59 Noroeste -- 1007.6 2.3 92
2019-07-23 20:00:00 24 22 Sudoeste 70 Sudoeste -- 1008.1 2.5 67
2019-07-23 19:00:00 22.2 45 Noroeste 71 Noroeste -- 1005.3 -0.6 90
2019-07-23 18:00:00 24.9 37 Noroeste 45 Noroeste -- 1005.3 -0.7 75
2019-07-23 17:00:00 23.3 27 Oeste 42 Noroeste -- 1005.6 -0.5 82
2019-07-23 16:00:00 29.7 4 Noroeste 16 Oeste -- 1005.9 -0.8 52
2019-07-23 15:00:00 -- 5 Este 25 Sudeste -- 1006 -0.8 --
2019-07-23 14:00:00 34.2 11 Sudeste 36 Sudeste -- 1006.1 -0.7 29
2019-07-23 13:00:00 34 18 Sudeste 31 Sudeste -- 1006.7 -0.7 30
2019-07-23 12:00:00 33.8 13 Sur 39 Sur -- 1006.8 0.7 28
2019-07-23 11:00:00 33.2 21 Sur 44 Sudoeste -- 1006.8 0.1 28
2019-07-23 10:00:00 31.6 17 Sur 46 Sudeste -- 1007.4 0.4 31
2019-07-23 09:00:00 26.5 16 Sudeste 35 Sudeste -- 1006.1 -1 48
2019-07-23 08:00:00 21.7 12 Sudeste 22 Sudeste -- 1006.7 -1.5 91
2019-07-23 07:00:00 21 16 Sudeste 22 Sur -- 1007 -1.9 93
2019-07-23 06:00:00 20.7 13 Sudeste 23 Sur -- 1007.1 -2.8 94
2019-07-23 05:00:00 19.9 17 Sur 22 Sudeste -- 1008.2 -2.1 94
2019-07-23 04:00:00 20.9 13 Sur 16 Sur -- 1008.9 -1.5 93
2019-07-23 03:00:00 21.2 10 Sur 17 Sur -- 1009.9 -0.7 92
2019-07-23 02:00:00 21.9 0 Calma 14 Sur -- 1010.3 0.4 92
2019-07-23 01:00:00 22 0 Calma 39 Noroeste -- 1010.4 0.6 91
2019-07-23 00:00:00 22.4 16 Noroeste 35 Noroeste -- 1010.6 0.5 88
2019-07-22 23:00:00 22.7 10 Oeste 14 Oeste -- 1009.9 -0.2 84
2019-07-22 22:00:00 23.1 8 Oeste 10 Noroeste -- 1009.8 -0.7 84
2019-07-22 21:00:00 25.5 2 Sudeste 10 Sur -- 1010.1 -0.8 68
2019-07-22 20:00:00 26 8 Sudeste 12 Sudeste -- 1010.1 -1.2 73
2019-07-22 19:00:00 26.9 5 Sudeste 12 Sudeste -- 1010.5 -1.5 69
2019-07-22 18:00:00 27.1 3 Este 14 Nordeste -- 1010.9 -1.7 70
2019-07-22 17:00:00 26.6 8 Sudeste 15 Sudeste -- 1011.3 -1.7 69
2019-07-22 16:00:00 27.2 3 Sudeste 12 Nordeste -- 1012 -1.6 68
2019-07-22 15:00:00 25.7 4 Este 13 Este -- 1012.6 -1.5 74
2019-07-22 14:00:00 24 5 Nordeste 12 Nordeste -- 1013 -1.4 77
2019-07-22 13:00:00 23.6 6 Este 12 Este -- 1013.6 -1.2 79
2019-07-22 12:00:00 23.5 3 Este 10 Nordeste -- 1014.1 -1 79
2019-07-22 11:00:00 22.2 0 Calma 5 Sudeste -- 1014.4 -0.7 84
2019-07-22 10:00:00 21.5 0 Calma 5 Sudeste -- 1014.8 -0.3 87
2019-07-22 09:00:00 21.6 0 Calma -- -- -- 1015.1 -0.3 87
2019-07-22 08:00:00 21.1 0 Calma 10 Sudeste -- 1015.1 -0.2 90
2019-07-22 07:00:00 20.6 5 Sudeste 11 Sudeste -- 1015.1 -0.7 90
2019-07-22 06:00:00 20.3 0 Calma -- -- -- 1015.4 -0.7 90
2019-07-22 05:00:00 20.3 0 Calma -- -- -- 1015.3 -1.4 89
2019-07-22 04:00:00 20.6 0 Calma -- -- -- 1015.8 -1.1 87
2019-07-22 03:00:00 20.5 0 Calma 6 Sur -- 1016.1 -0.7 88
2019-07-22 02:00:00 20.8 4 Sur 10 Sudeste -- 1016.7 -0.2 86
2019-07-22 01:00:00 21.3 0 Calma 11 Nordeste -- 1016.9 0.2 83
2019-07-22 00:00:00 21.1 6 Nordeste 14 Norte -- 1016.8 0.8 83
2019-07-21 23:00:00 21.2 10 Norte 14 Norte -- 1016.9 1.3 82
2019-07-21 22:00:00 21.3 0 Calma 10 Norte -- 1016.7 1.4 84
2019-07-21 21:00:00 21.2 10 Norte 22 Noroeste -- 1016 1.1 84
2019-07-21 20:00:00 21.5 16 Noroeste 22 Norte -- 1015.6 0.6 81
2019-07-21 19:00:00 22.3 17 Norte 20 Norte -- 1015.3 0.3 80
2019-07-21 18:00:00 23.2 5 Nordeste 11 Este -- 1014.9 -0.5 75
2019-07-21 17:00:00 25.2 0 Calma 12 Este -- 1015 -0.8 69
2019-07-21 16:00:00 23.3 0 Calma 14 Nordeste -- 1015 -0.6 69
2019-07-21 15:00:00 24.1 0 Calma 14 Este -- 1015.4 0.2 74
2019-07-21 14:00:00 22 2 Nordeste 15 Nordeste -- 1015.8 0.7 82
2019-07-21 13:00:00 21 0 Calma 30 Este -- 1015.6 0.7 89
2019-07-21 12:00:00 20.5 2 Nordeste 24 Nordeste -- 1015.2 0.5 90
2019-07-21 11:00:00 20.6 2 Sur 17 Noroeste -- 1015.1 0.7 94
2019-07-21 10:00:00 19.5 6 Oeste 10 Oeste -- 1014.9 0.6 95
2019-07-21 09:00:00 19.6 4 Oeste 15 Sur -- 1014.7 0.5 96
2019-07-21 08:00:00 19.1 4 Sur 9 Oeste -- 1014.4 0.3 96
2019-07-21 07:00:00 19.2 4 Oeste 14 Sudeste -- 1014.3 0.1 96
2019-07-21 06:00:00 18.9 7 Sudeste 16 Sur -- 1014.2 -0.1 96
2019-07-21 05:00:00 19.3 10 Sur 13 Sur -- 1014.1 -0.6 95
2019-07-21 04:00:00 20.4 5 Oeste 10 Oeste -- 1014.2 -0.5 92
2019-07-21 03:00:00 20.3 8 Oeste 19 Noroeste -- 1014.3 -0.2 92
2019-07-21 02:00:00 20.5 6 Oeste 15 Noroeste -- 1014.7 0.4 91
2019-07-21 01:00:00 20.6 8 Noroeste 15 Noroeste -- 1014.7 1.4 90
2019-07-21 00:00:00 20.7 13 Noroeste 17 Noroeste -- 1014.5 1.6 91